Terminal Aerodrome Forecast
Issued by NWS

Home | Current Version | Previous Version | Text Only | Print | Product List | Glossary On
Versions: 1 2 3 4 5 6 7 8 9 10 11 12 13
000
FTUS42 KTAE 291446 AAA
TAFECP
TAF AMD
KECP 291446Z 2915/3012 11005KT P6SM VCSH SCT030 OVC250
      TEMPO 2915/2916 6SM -RA BKN009
     FM291800 17008KT P6SM VCTS BKN030CB
     FM292200 VRB05KT P6SM BKN250=

USA.gov is the U.S. government's official web portal to all federal, state and local government web resources and services.